createdAt,value
2023-05-10T00:00:53.337Z,498.00
2023-05-10T00:01:53.368Z,497.00
2023-05-10T00:02:53.474Z,497.00
2023-05-10T00:03:53.507Z,495.00
2023-05-10T00:04:53.420Z,494.00
2023-05-10T00:05:53.432Z,496.00
2023-05-10T00:06:53.435Z,495.00
2023-05-10T00:07:53.496Z,495.00
2023-05-10T00:08:53.549Z,494.00
2023-05-10T00:09:53.548Z,496.00
2023-05-10T00:10:53.597Z,498.00
2023-05-10T00:11:53.635Z,498.00
2023-05-10T00:12:53.675Z,497.00
2023-05-10T00:13:53.677Z,495.00
2023-05-10T00:14:53.658Z,496.00
2023-05-10T00:15:53.708Z,493.00
2023-05-10T00:16:53.746Z,492.00
2023-05-10T00:17:53.822Z,493.00
2023-05-10T00:18:53.776Z,491.00
2023-05-10T00:19:53.787Z,490.00
2023-05-10T00:20:53.825Z,491.00
2023-05-10T00:21:53.855Z,491.00
2023-05-10T00:22:53.851Z,492.00
2023-05-10T00:23:54.177Z,491.00
2023-05-10T00:24:53.959Z,491.00
2023-05-10T00:25:53.943Z,490.00
2023-05-10T00:26:53.993Z,489.00
2023-05-10T00:27:54.034Z,489.00
2023-05-10T00:28:54.057Z,492.00
2023-05-10T00:29:54.089Z,493.00
2023-05-10T00:30:54.123Z,496.00
2023-05-10T00:31:54.181Z,497.00
2023-05-10T00:32:54.250Z,496.00
2023-05-10T00:33:54.195Z,495.00
2023-05-10T00:34:54.179Z,497.00
2023-05-10T00:35:54.242Z,498.00
2023-05-10T00:36:54.263Z,498.00
2023-05-10T00:37:54.319Z,497.00
2023-05-10T00:38:54.644Z,493.00
2023-05-10T00:39:54.351Z,491.00
2023-05-10T00:40:54.447Z,494.00
2023-05-10T00:41:54.437Z,495.00
2023-05-10T00:42:54.467Z,495.00
2023-05-10T00:43:54.491Z,496.00
2023-05-10T00:44:54.520Z,497.00
2023-05-10T00:45:54.597Z,497.00
2023-05-10T00:46:54.587Z,494.00
2023-05-10T00:47:54.679Z,494.00
2023-05-10T00:48:54.715Z,493.00
2023-05-10T00:49:54.719Z,493.00
2023-05-10T00:50:54.698Z,493.00
2023-05-10T00:51:54.779Z,493.00
2023-05-10T00:52:54.805Z,493.00
2023-05-10T00:53:55.189Z,493.00
2023-05-10T00:54:54.881Z,492.00
2023-05-10T00:55:54.876Z,494.00
2023-05-10T00:56:54.970Z,496.00
2023-05-10T00:57:54.977Z,497.00
2023-05-10T00:58:55.170Z,494.00
2023-05-10T00:59:55.027Z,494.00
2023-05-10T01:00:55.066Z,493.00
2023-05-10T01:01:55.122Z,492.00
2023-05-10T01:02:55.196Z,492.00
2023-05-10T01:03:55.678Z,493.00
2023-05-10T01:04:55.263Z,495.00
2023-05-10T01:05:55.217Z,496.00
2023-05-10T01:06:55.282Z,496.00
2023-05-10T01:07:55.348Z,496.00
2023-05-10T01:08:55.715Z,497.00
2023-05-10T01:09:55.390Z,495.00
2023-05-10T01:10:55.403Z,493.00
2023-05-10T01:11:55.462Z,493.00
2023-05-10T01:12:55.558Z,493.00
2023-05-10T01:13:55.708Z,492.00
2023-05-10T01:14:55.574Z,489.00
2023-05-10T01:15:55.596Z,488.00
2023-05-10T01:16:55.628Z,491.00
2023-05-10T01:17:55.720Z,491.00
2023-05-10T01:18:55.691Z,492.00
2023-05-10T01:19:55.750Z,493.00
2023-05-10T01:20:55.787Z,490.00
2023-05-10T01:21:55.790Z,487.00
2023-05-10T01:22:55.825Z,484.00
2023-05-10T01:23:56.191Z,485.00
2023-05-10T01:24:55.902Z,486.00
2023-05-10T01:25:56.004Z,483.00
2023-05-10T01:26:55.983Z,484.00
2023-05-10T01:27:56.029Z,487.00
2023-05-10T01:28:56.217Z,487.00
2023-05-10T01:30:09.170Z,487.00
2023-05-10T01:30:57.112Z,486.00
2023-05-10T01:31:56.066Z,488.00
2023-05-10T01:32:56.107Z,488.00
2023-05-10T01:33:56.269Z,486.00
2023-05-10T01:34:56.073Z,486.00
2023-05-10T01:35:56.068Z,486.00
2023-05-10T01:36:56.036Z,489.00
2023-05-10T01:37:56.084Z,490.00
2023-05-10T01:38:56.185Z,492.00
2023-05-10T01:39:56.008Z,493.00
2023-05-10T01:40:56.019Z,495.00
2023-05-10T01:41:56.008Z,494.00
2023-05-10T01:42:56.002Z,492.00
2023-05-10T01:43:55.963Z,493.00
2023-05-10T01:44:55.987Z,495.00
2023-05-10T01:45:56.037Z,496.00
2023-05-10T01:46:56.256Z,495.00
2023-05-10T01:47:56.138Z,493.00
2023-05-10T01:48:56.126Z,492.00
2023-05-10T01:49:56.179Z,490.00
2023-05-10T01:50:56.203Z,491.00
2023-05-10T01:51:56.275Z,491.00
2023-05-10T01:52:56.290Z,491.00
2023-05-10T01:53:56.309Z,489.00
2023-05-10T01:54:56.339Z,488.00
2023-05-10T01:55:56.404Z,489.00
2023-05-10T01:56:56.449Z,491.00
2023-05-10T01:57:56.440Z,492.00
2023-05-10T01:58:56.521Z,490.00
2023-05-10T01:59:56.497Z,491.00
2023-05-10T02:00:56.604Z,494.00
2023-05-10T02:01:56.656Z,495.00
2023-05-10T02:02:56.687Z,493.00
2023-05-10T02:03:56.751Z,493.00
2023-05-10T02:04:56.695Z,493.00
2023-05-10T02:05:56.752Z,492.00
2023-05-10T02:06:56.796Z,492.00
2023-05-10T02:07:56.848Z,493.00
2023-05-10T02:08:56.939Z,493.00
2023-05-10T02:09:56.920Z,491.00
2023-05-10T02:10:56.940Z,491.00
2023-05-10T02:11:56.975Z,491.00
2023-05-10T02:12:57.074Z,490.00
2023-05-10T02:13:57.236Z,492.00
2023-05-10T02:14:57.081Z,490.00
2023-05-10T02:15:57.099Z,492.00
2023-05-10T02:16:57.236Z,492.00
2023-05-10T02:17:57.229Z,492.00
2023-05-10T02:18:57.725Z,491.00
2023-05-10T02:19:57.277Z,492.00
2023-05-10T02:20:57.318Z,491.00
2023-05-10T02:21:57.335Z,491.00
2023-05-10T02:22:57.356Z,493.00
2023-05-10T02:23:57.402Z,490.00
2023-05-10T02:24:57.468Z,490.00
2023-05-10T02:25:57.504Z,493.00
2023-05-10T02:26:57.532Z,492.00
2023-05-10T02:27:57.589Z,491.00
2023-05-10T02:28:57.653Z,490.00
2023-05-10T02:29:57.726Z,492.00
2023-05-10T02:30:57.682Z,491.00
2023-05-10T02:31:57.737Z,490.00
2023-05-10T02:32:57.841Z,492.00
2023-05-10T02:33:57.800Z,491.00
2023-05-10T02:34:57.823Z,488.00
2023-05-10T02:35:57.881Z,489.00
2023-05-10T02:36:57.906Z,488.00
2023-05-10T02:37:57.916Z,488.00
2023-05-10T02:38:58.007Z,489.00
2023-05-10T02:39:58.043Z,488.00
2023-05-10T02:40:58.042Z,487.00
2023-05-10T02:41:58.103Z,487.00
2023-05-10T02:42:58.098Z,489.00
2023-05-10T02:43:58.178Z,490.00
2023-05-10T02:44:58.223Z,489.00
2023-05-10T02:45:58.252Z,489.00
2023-05-10T02:46:58.296Z,490.00
2023-05-10T02:47:58.339Z,492.00
2023-05-10T02:48:58.715Z,492.00
2023-05-10T02:49:58.355Z,491.00
2023-05-10T02:50:58.400Z,490.00
2023-05-10T02:51:58.453Z,488.00
2023-05-10T02:52:58.477Z,487.00
2023-05-10T02:53:58.589Z,488.00
2023-05-10T02:54:58.567Z,487.00
2023-05-10T02:55:58.595Z,487.00
2023-05-10T02:56:58.587Z,488.00
2023-05-10T02:57:58.646Z,486.00
2023-05-10T02:58:58.687Z,484.00
2023-05-10T02:59:58.737Z,483.00
2023-05-10T03:00:58.744Z,485.00
2023-05-10T03:01:58.808Z,485.00
2023-05-10T03:02:58.852Z,485.00
2023-05-10T03:03:59.235Z,487.00
2023-05-10T03:04:58.952Z,486.00
2023-05-10T03:05:58.925Z,487.00
2023-05-10T03:06:58.957Z,488.00
2023-05-10T03:07:58.979Z,487.00
2023-05-10T03:08:59.018Z,487.00
2023-05-10T03:09:59.032Z,490.00
2023-05-10T03:10:59.086Z,490.00
2023-05-10T03:11:59.127Z,488.00
2023-05-10T03:12:59.170Z,486.00
2023-05-10T03:13:59.177Z,485.00
2023-05-10T03:14:59.252Z,485.00
2023-05-10T03:15:59.318Z,485.00
2023-05-10T03:16:59.318Z,486.00
2023-05-10T03:17:59.346Z,485.00
2023-05-10T03:18:59.379Z,485.00
2023-05-10T03:19:59.396Z,486.00
2023-05-10T03:20:59.390Z,488.00
2023-05-10T03:21:59.463Z,489.00
2023-05-10T03:22:59.470Z,489.00
2023-05-10T03:23:59.523Z,490.00
2023-05-10T03:24:59.542Z,488.00
2023-05-10T03:25:59.571Z,487.00
2023-05-10T03:26:59.614Z,485.00
2023-05-10T03:27:59.650Z,484.00
2023-05-10T03:28:59.649Z,484.00
2023-05-10T03:29:59.672Z,485.00
2023-05-10T03:30:59.765Z,484.00
2023-05-10T03:31:59.706Z,482.00
2023-05-10T03:32:59.758Z,482.00
2023-05-10T03:33:59.801Z,482.00
2023-05-10T03:34:59.852Z,483.00
2023-05-10T03:35:59.856Z,483.00
2023-05-10T03:36:59.891Z,484.00
2023-05-10T03:37:59.975Z,487.00
2023-05-10T03:39:00.276Z,489.00
2023-05-10T03:39:59.969Z,491.00
2023-05-10T03:41:00.034Z,491.00
2023-05-10T03:42:00.073Z,490.00
2023-05-10T03:43:00.100Z,490.00
2023-05-10T03:44:00.187Z,489.00
2023-05-10T03:45:00.159Z,489.00
2023-05-10T03:46:00.177Z,489.00
2023-05-10T03:47:00.359Z,490.00
2023-05-10T03:48:00.345Z,489.00
2023-05-10T03:49:00.307Z,488.00
2023-05-10T03:50:00.477Z,490.00
2023-05-10T03:51:00.385Z,490.00
2023-05-10T03:52:00.420Z,491.00
2023-05-10T03:53:00.474Z,491.00
2023-05-10T03:54:00.497Z,490.00
2023-05-10T03:55:00.548Z,487.00
2023-05-10T03:56:00.568Z,486.00
2023-05-10T03:57:00.578Z,486.00
2023-05-10T03:58:00.613Z,485.00
2023-05-10T03:59:00.652Z,487.00
2023-05-10T04:00:00.695Z,489.00
2023-05-10T04:01:00.704Z,488.00
2023-05-10T04:02:00.785Z,490.00
2023-05-10T04:03:00.859Z,491.00
2023-05-10T04:04:00.933Z,490.00
2023-05-10T04:05:00.859Z,492.00
2023-05-10T04:06:00.978Z,493.00
2023-05-10T04:07:00.967Z,493.00
2023-05-10T04:08:01.012Z,492.00
2023-05-10T04:09:01.236Z,490.00
2023-05-10T04:10:01.090Z,489.00
2023-05-10T04:11:01.116Z,489.00
2023-05-10T04:12:01.157Z,491.00
2023-05-10T04:13:01.227Z,491.00
2023-05-10T04:14:01.291Z,492.00
2023-05-10T04:15:01.265Z,492.00
2023-05-10T04:16:01.297Z,489.00
2023-05-10T04:17:02.089Z,487.00
2023-05-10T04:18:01.484Z,487.00
2023-05-10T04:19:01.441Z,486.00
2023-05-10T04:20:01.484Z,485.00
2023-05-10T04:21:01.545Z,487.00
2023-05-10T04:22:01.571Z,488.00
2023-05-10T04:23:01.599Z,489.00
2023-05-10T04:24:01.653Z,490.00
2023-05-10T04:25:01.716Z,489.00
2023-05-10T04:26:01.723Z,491.00
2023-05-10T04:27:01.762Z,493.00
2023-05-10T04:28:01.803Z,493.00
2023-05-10T04:29:01.848Z,491.00
2023-05-10T04:30:01.857Z,490.00
2023-05-10T04:31:01.970Z,492.00
2023-05-10T04:32:01.932Z,492.00
2023-05-10T04:33:02.002Z,492.00
2023-05-10T04:34:02.036Z,493.00
2023-05-10T04:35:02.044Z,493.00
2023-05-10T04:36:02.107Z,494.00
2023-05-10T04:37:02.162Z,494.00
2023-05-10T04:38:02.188Z,494.00
2023-05-10T04:39:02.223Z,493.00
2023-05-10T04:40:02.257Z,494.00
2023-05-10T04:41:02.294Z,494.00
2023-05-10T04:42:02.358Z,494.00
2023-05-10T04:43:02.388Z,492.00
2023-05-10T04:44:02.438Z,490.00
2023-05-10T04:45:02.518Z,490.00
2023-05-10T04:46:02.530Z,487.00
2023-05-10T04:47:02.539Z,486.00
2023-05-10T04:48:02.585Z,488.00
2023-05-10T04:49:02.771Z,489.00
2023-05-10T04:50:02.658Z,488.00
2023-05-10T04:51:02.688Z,488.00
2023-05-10T04:52:02.737Z,489.00
2023-05-10T04:53:02.801Z,488.00
2023-05-10T04:54:06.633Z,485.00
2023-05-10T04:55:02.802Z,484.00
2023-05-10T04:56:02.824Z,485.00
2023-05-10T04:57:02.795Z,484.00
2023-05-10T04:58:02.794Z,484.00
2023-05-10T04:59:02.815Z,485.00
2023-05-10T05:00:02.786Z,482.00
2023-05-10T05:01:02.888Z,481.00
2023-05-10T05:02:02.897Z,483.00
2023-05-10T05:03:02.822Z,486.00
2023-05-10T05:04:02.737Z,489.00
2023-05-10T05:05:02.755Z,490.00
2023-05-10T05:06:02.774Z,490.00
2023-05-10T05:07:02.742Z,495.00
2023-05-10T05:08:02.732Z,499.00
2023-05-10T05:09:02.773Z,502.00
2023-05-10T05:10:02.714Z,505.00
2023-05-10T05:11:02.761Z,508.00
2023-05-10T05:12:02.697Z,516.00
2023-05-10T05:13:02.721Z,531.00
2023-05-10T05:14:02.775Z,522.00
2023-05-10T05:15:02.716Z,521.00
2023-05-10T05:16:02.693Z,519.00
2023-05-10T05:17:02.699Z,519.00
2023-05-10T05:18:02.792Z,521.00
2023-05-10T05:19:02.802Z,521.00
2023-05-10T05:20:02.659Z,522.00
2023-05-10T05:21:02.662Z,524.00
2023-05-10T05:22:02.624Z,527.00
2023-05-10T05:23:02.601Z,525.00
2023-05-10T05:24:02.643Z,524.00
2023-05-10T05:25:02.681Z,522.00
2023-05-10T05:26:02.750Z,523.00
2023-05-10T05:27:02.793Z,521.00
2023-05-10T05:28:02.815Z,520.00
2023-05-10T05:29:02.863Z,520.00
2023-05-10T05:30:02.929Z,519.00
2023-05-10T05:31:02.994Z,518.00
2023-05-10T05:32:03.193Z,516.00
2023-05-10T05:33:03.141Z,514.00
2023-05-10T05:34:03.168Z,509.00
2023-05-10T05:35:03.321Z,505.00
2023-05-10T05:36:03.262Z,502.00
2023-05-10T05:37:03.305Z,501.00
2023-05-10T05:38:03.353Z,501.00
2023-05-10T05:39:03.398Z,503.00
2023-05-10T05:40:03.465Z,503.00
2023-05-10T05:41:03.728Z,501.00
2023-05-10T05:42:03.751Z,502.00
2023-05-10T05:43:03.858Z,503.00
2023-05-10T05:44:04.033Z,505.00
2023-05-10T05:45:04.485Z,505.00
2023-05-10T05:46:03.834Z,507.00
2023-05-10T05:47:03.854Z,506.00
2023-05-10T05:48:04.010Z,503.00
2023-05-10T05:49:03.950Z,499.00
2023-05-10T05:50:04.276Z,497.00
2023-05-10T05:51:05.856Z,499.00
2023-05-10T05:52:04.113Z,499.00
2023-05-10T05:53:04.071Z,499.00
2023-05-10T05:54:04.092Z,499.00
2023-05-10T05:55:04.332Z,497.00
2023-05-10T05:56:04.033Z,498.00
2023-05-10T05:57:04.000Z,498.00
2023-05-10T05:58:04.070Z,508.00
2023-05-10T05:59:03.989Z,553.00
2023-05-10T06:00:04.021Z,583.00
2023-05-10T06:01:04.011Z,616.00
2023-05-10T06:02:04.021Z,650.00
2023-05-10T06:03:04.037Z,700.00
2023-05-10T06:04:04.112Z,718.00
2023-05-10T06:05:03.956Z,749.00
2023-05-10T06:06:04.001Z,772.00
2023-05-10T06:07:03.954Z,788.00
2023-05-10T06:08:03.980Z,801.00
2023-05-10T06:09:03.914Z,814.00
2023-05-10T06:10:03.973Z,835.00
2023-05-10T06:11:03.933Z,848.00
2023-05-10T06:12:03.914Z,858.00
2023-05-10T06:13:03.980Z,868.00
2023-05-10T06:14:03.881Z,881.00
2023-05-10T06:15:03.898Z,896.00
2023-05-10T06:16:03.866Z,915.00
2023-05-10T06:17:03.895Z,931.00
2023-05-10T06:18:03.965Z,941.00
2023-05-10T06:19:03.888Z,947.00
2023-05-10T06:20:03.900Z,954.00
2023-05-10T06:21:03.893Z,960.00
2023-05-10T06:22:03.928Z,966.00
2023-05-10T06:23:03.819Z,975.00
2023-05-10T06:24:03.918Z,992.00
2023-05-10T06:25:03.805Z,1011.00
2023-05-10T06:26:03.844Z,1021.00
2023-05-10T06:27:03.796Z,1029.00
2023-05-10T06:28:03.772Z,1039.00
2023-05-10T06:29:03.805Z,1044.00
2023-05-10T06:30:12.339Z,1049.00
2023-05-10T06:31:04.828Z,1060.00
2023-05-10T06:32:03.765Z,1077.00
2023-05-10T06:33:03.910Z,1082.00
2023-05-10T06:34:03.748Z,1087.00
2023-05-10T06:35:03.815Z,1082.00
2023-05-10T06:36:03.751Z,1080.00
2023-05-10T06:37:03.764Z,1081.00
2023-05-10T06:38:03.724Z,1088.00
2023-05-10T06:39:03.717Z,1094.00
2023-05-10T06:40:03.731Z,1100.00
2023-05-10T06:41:03.685Z,1105.00
2023-05-10T06:42:03.702Z,1113.00
2023-05-10T06:43:03.711Z,1116.00
2023-05-10T06:44:03.662Z,1120.00
2023-05-10T06:45:03.675Z,1122.00
2023-05-10T06:46:03.689Z,1118.00
2023-05-10T06:47:03.654Z,1115.00
2023-05-10T06:48:03.800Z,1109.00
2023-05-10T06:49:03.695Z,1110.00
2023-05-10T06:50:03.699Z,1121.00
2023-05-10T06:51:03.720Z,1127.00
2023-05-10T06:52:03.716Z,1128.00
2023-05-10T06:53:03.724Z,1132.00
2023-05-10T06:54:03.778Z,1142.00
2023-05-10T06:55:03.887Z,1138.00
2023-05-10T06:56:04.542Z,1114.00
2023-05-10T06:57:04.740Z,1099.00
2023-05-10T06:58:03.778Z,1091.00
2023-05-10T06:59:03.793Z,1089.00
2023-05-10T07:00:03.862Z,1093.00
2023-05-10T07:01:03.808Z,1101.00
2023-05-10T07:02:03.825Z,1114.00
2023-05-10T07:03:03.757Z,1116.00
2023-05-10T07:04:03.742Z,1114.00
2023-05-10T07:05:03.818Z,1106.00
2023-05-10T07:06:03.777Z,1096.00
2023-05-10T07:07:03.688Z,1092.00
2023-05-10T07:08:03.696Z,1088.00
2023-05-10T07:09:03.676Z,1088.00
2023-05-10T07:10:03.703Z,1083.00
2023-05-10T07:11:03.673Z,1077.00
2023-05-10T07:12:03.661Z,1068.00
2023-05-10T07:13:03.744Z,1061.00
2023-05-10T07:14:03.663Z,1050.00
2023-05-10T07:15:03.668Z,1045.00
2023-05-10T07:16:03.635Z,1040.00
2023-05-10T07:17:03.707Z,1033.00
2023-05-10T07:18:03.803Z,1026.00
2023-05-10T07:19:03.671Z,1018.00
2023-05-10T07:20:03.828Z,1013.00
2023-05-10T07:21:03.610Z,1012.00
2023-05-10T07:22:03.610Z,1011.00
2023-05-10T07:23:03.620Z,1008.00
2023-05-10T07:24:03.578Z,1006.00
2023-05-10T07:25:03.851Z,998.00
2023-05-10T07:26:03.570Z,993.00
2023-05-10T07:27:03.543Z,987.00
2023-05-10T07:28:03.537Z,986.00
2023-05-10T07:29:03.536Z,983.00
2023-05-10T07:30:03.574Z,981.00
2023-05-10T07:31:03.610Z,983.00
2023-05-10T07:32:03.555Z,979.00
2023-05-10T07:33:03.580Z,975.00
2023-05-10T07:34:03.544Z,971.00
2023-05-10T07:35:03.528Z,967.00
2023-05-10T07:36:03.560Z,961.00
2023-05-10T07:37:03.516Z,957.00
2023-05-10T07:38:03.494Z,956.00
2023-05-10T07:39:03.488Z,954.00
2023-05-10T07:40:03.501Z,951.00
2023-05-10T07:41:03.491Z,947.00
2023-05-10T07:42:03.499Z,944.00
2023-05-10T07:43:03.465Z,943.00
2023-05-10T07:44:03.480Z,938.00
2023-05-10T07:45:03.979Z,932.00
2023-05-10T07:46:03.440Z,929.00
2023-05-10T07:47:03.434Z,924.00
2023-05-10T07:48:03.469Z,922.00
2023-05-10T07:49:03.427Z,939.00
2023-05-10T07:50:03.881Z,941.00
2023-05-10T07:51:04.359Z,946.00
2023-05-10T07:52:03.424Z,943.00
2023-05-10T07:53:03.364Z,950.00
2023-05-10T07:54:03.401Z,1003.00
2023-05-10T07:55:03.381Z,1040.00
2023-05-10T07:56:03.364Z,1054.00
2023-05-10T07:57:03.369Z,1064.00
2023-05-10T07:58:03.334Z,1073.00
2023-05-10T07:59:03.408Z,1079.00
2023-05-10T08:00:03.340Z,1083.00
2023-05-10T08:01:03.320Z,1087.00
2023-05-10T08:02:03.332Z,1090.00
2023-05-10T08:03:03.467Z,1093.00
2023-05-10T08:04:03.560Z,1091.00
2023-05-10T08:05:03.315Z,1093.00
2023-05-10T08:06:03.309Z,1103.00
2023-05-10T08:07:03.287Z,1112.00
2023-05-10T08:08:03.265Z,1117.00
2023-05-10T08:09:03.253Z,1122.00
2023-05-10T08:10:03.345Z,1125.00
2023-05-10T08:11:03.259Z,1123.00
2023-05-10T08:12:03.265Z,1119.00
2023-05-10T08:13:03.225Z,1121.00
2023-05-10T08:14:03.249Z,1126.00
2023-05-10T08:15:03.210Z,1123.00
2023-05-10T08:16:03.276Z,1116.00
2023-05-10T08:17:03.230Z,1112.00
2023-05-10T08:18:03.266Z,1116.00
2023-05-10T08:19:03.309Z,1118.00
2023-05-10T08:20:03.233Z,1117.00
2023-05-10T08:21:03.191Z,1122.00
2023-05-10T08:22:03.168Z,1121.00
2023-05-10T08:23:03.184Z,1114.00
2023-05-10T08:24:03.145Z,1106.00
2023-05-10T08:25:03.169Z,1094.00
2023-05-10T08:26:03.126Z,1086.00
2023-05-10T08:27:03.149Z,1091.00
2023-05-10T08:28:03.121Z,1093.00
2023-05-10T08:29:03.162Z,1102.00
2023-05-10T08:30:03.402Z,1113.00
2023-05-10T08:31:03.120Z,1123.00
2023-05-10T08:32:03.092Z,1129.00
2023-05-10T08:33:03.155Z,1127.00
2023-05-10T08:34:03.079Z,1127.00
2023-05-10T08:35:03.364Z,1131.00
2023-05-10T08:36:03.045Z,1136.00
2023-05-10T08:37:03.058Z,1143.00
2023-05-10T08:38:03.027Z,1146.00
2023-05-10T08:39:03.031Z,1151.00
2023-05-10T08:40:03.370Z,1162.00
2023-05-10T08:41:03.077Z,1164.00
2023-05-10T08:42:03.176Z,1162.00
2023-05-10T08:43:03.215Z,1114.00
2023-05-10T08:44:03.253Z,1080.00
2023-05-10T08:45:03.319Z,982.00
2023-05-10T08:46:03.769Z,1001.00
2023-05-10T08:47:03.497Z,1012.00
2023-05-10T08:48:03.536Z,1005.00
2023-05-10T08:49:03.485Z,982.00
2023-05-10T08:50:03.896Z,954.00
2023-05-10T08:51:03.455Z,913.00
2023-05-10T08:52:03.480Z,894.00
2023-05-10T08:53:03.487Z,878.00
2023-05-10T08:54:03.515Z,864.00
2023-05-10T08:55:03.880Z,850.00
2023-05-10T08:56:03.475Z,829.00
2023-05-10T08:57:03.470Z,807.00
2023-05-10T08:58:03.447Z,791.00
2023-05-10T08:59:03.443Z,769.00
2023-05-10T09:00:03.873Z,752.00
2023-05-10T09:01:03.494Z,741.00
2023-05-10T09:02:04.431Z,734.00
2023-05-10T09:03:03.481Z,723.00
2023-05-10T09:04:03.571Z,707.00
2023-05-10T09:05:04.038Z,697.00
2023-05-10T09:06:03.446Z,688.00
2023-05-10T09:07:03.407Z,682.00
2023-05-10T09:08:03.422Z,674.00
2023-05-10T09:09:03.393Z,666.00
2023-05-10T09:10:03.873Z,657.00
2023-05-10T09:11:03.382Z,646.00
2023-05-10T09:12:03.390Z,637.00
2023-05-10T09:13:03.339Z,626.00
2023-05-10T09:14:03.348Z,615.00
2023-05-10T09:15:03.402Z,610.00
2023-05-10T09:16:10.202Z,604.00
2023-05-10T09:17:04.365Z,597.00
2023-05-10T09:18:03.440Z,592.00
2023-05-10T09:19:03.378Z,587.00
2023-05-10T09:20:03.343Z,582.00
2023-05-10T09:21:03.343Z,580.00
2023-05-10T09:22:03.319Z,573.00
2023-05-10T09:23:03.289Z,568.00
2023-05-10T09:24:03.254Z,563.00
2023-05-10T09:25:03.278Z,560.00
2023-05-10T09:26:03.338Z,555.00
2023-05-10T09:27:03.296Z,552.00
2023-05-10T09:28:03.326Z,548.00
2023-05-10T09:29:03.225Z,544.00
2023-05-10T09:30:03.268Z,543.00
2023-05-10T09:31:03.273Z,539.00
2023-05-10T09:32:03.234Z,534.00
2023-05-10T09:33:03.248Z,531.00
2023-05-10T09:34:03.229Z,531.00
2023-05-10T09:35:03.229Z,528.00
2023-05-10T09:36:03.395Z,526.00
2023-05-10T09:37:03.342Z,524.00
2023-05-10T09:38:03.353Z,525.00
2023-05-10T09:39:03.397Z,525.00
2023-05-10T09:40:03.432Z,525.00
2023-05-10T09:41:03.890Z,523.00
2023-05-10T09:42:03.487Z,520.00
2023-05-10T09:43:03.538Z,518.00
2023-05-10T09:44:03.576Z,515.00
2023-05-10T09:45:03.598Z,514.00
2023-05-10T09:46:03.947Z,515.00
2023-05-10T09:47:03.657Z,519.00
2023-05-10T09:48:03.701Z,518.00
2023-05-10T09:49:03.685Z,516.00
2023-05-10T09:50:03.754Z,514.00
2023-05-10T09:51:03.899Z,513.00
2023-05-10T09:52:03.846Z,511.00
2023-05-10T09:53:03.872Z,510.00
2023-05-10T09:54:03.884Z,509.00
2023-05-10T09:55:03.888Z,510.00
2023-05-10T09:56:04.402Z,507.00
2023-05-10T09:57:04.006Z,507.00
2023-05-10T09:58:03.992Z,504.00
2023-05-10T09:59:04.043Z,503.00
2023-05-10T10:00:04.049Z,502.00
2023-05-10T10:01:04.463Z,503.00
2023-05-10T10:02:04.958Z,500.00
2023-05-10T10:03:04.174Z,495.00
2023-05-10T10:04:04.177Z,494.00
2023-05-10T10:05:04.401Z,491.00
2023-05-10T10:06:04.251Z,489.00
2023-05-10T10:07:04.317Z,489.00
2023-05-10T10:08:04.317Z,489.00
2023-05-10T10:09:04.349Z,489.00
2023-05-10T10:10:04.382Z,488.00
2023-05-10T10:11:04.938Z,487.00
2023-05-10T10:12:04.415Z,488.00
2023-05-10T10:13:04.461Z,489.00
2023-05-10T10:14:04.506Z,486.00
2023-05-10T10:15:04.560Z,484.00
2023-05-10T10:16:04.645Z,485.00
2023-05-10T10:17:07.492Z,482.00
2023-05-10T10:18:04.702Z,479.00
2023-05-10T10:19:04.644Z,478.00
2023-05-10T10:20:04.596Z,479.00
2023-05-10T10:21:04.579Z,480.00
2023-05-10T10:22:04.612Z,481.00
2023-05-10T10:23:04.629Z,480.00
2023-05-10T10:24:04.575Z,477.00
2023-05-10T10:25:04.556Z,475.00
2023-05-10T10:26:04.622Z,478.00
2023-05-10T10:27:04.599Z,478.00
2023-05-10T10:28:04.580Z,481.00
2023-05-10T10:29:04.564Z,481.00
2023-05-10T10:30:04.536Z,481.00
2023-05-10T10:31:04.598Z,483.00
2023-05-10T10:32:04.535Z,481.00
2023-05-10T10:33:13.224Z,482.00
2023-05-10T10:34:05.518Z,481.00
2023-05-10T10:35:04.515Z,483.00
2023-05-10T10:36:04.475Z,485.00
2023-05-10T10:37:04.519Z,486.00
2023-05-10T10:38:04.494Z,486.00
2023-05-10T10:39:04.520Z,489.00
2023-05-10T10:40:04.488Z,502.00
2023-05-10T10:41:04.972Z,592.00
2023-05-10T10:42:04.505Z,623.00
2023-05-10T10:43:04.473Z,647.00
2023-05-10T10:44:04.468Z,658.00
2023-05-10T10:45:04.508Z,720.00
2023-05-10T10:46:04.552Z,718.00
2023-05-10T10:47:05.477Z,718.00
2023-05-10T10:48:04.696Z,722.00
2023-05-10T10:49:04.702Z,735.00
2023-05-10T10:50:04.716Z,786.00
2023-05-10T10:51:04.909Z,843.00
2023-05-10T10:52:04.743Z,840.00
2023-05-10T10:53:04.849Z,836.00
2023-05-10T10:54:04.842Z,836.00
2023-05-10T10:55:04.917Z,836.00
2023-05-10T10:56:04.903Z,841.00
2023-05-10T10:57:04.997Z,841.00
2023-05-10T10:58:04.972Z,838.00
2023-05-10T10:59:05.003Z,833.00
2023-05-10T11:00:05.031Z,830.00
2023-05-10T11:01:05.435Z,828.00
2023-05-10T11:02:05.120Z,823.00
2023-05-10T11:03:05.217Z,824.00
2023-05-10T11:04:05.272Z,822.00
2023-05-10T11:05:05.205Z,818.00
2023-05-10T11:06:05.411Z,809.00
2023-05-10T11:07:05.279Z,806.00
2023-05-10T11:08:05.322Z,808.00
2023-05-10T11:09:05.331Z,810.00
2023-05-10T11:10:05.396Z,809.00
2023-05-10T11:11:05.489Z,809.00
2023-05-10T11:12:05.460Z,814.00
2023-05-10T11:13:05.504Z,814.00
2023-05-10T11:14:05.532Z,816.00
2023-05-10T11:15:05.539Z,817.00
2023-05-10T11:16:05.938Z,823.00
2023-05-10T11:17:05.695Z,827.00
2023-05-10T11:18:05.712Z,831.00
2023-05-10T11:19:05.710Z,834.00
2023-05-10T11:20:05.732Z,834.00
2023-05-10T11:21:05.935Z,833.00
2023-05-10T11:22:05.763Z,837.00
2023-05-10T11:23:05.825Z,836.00
2023-05-10T11:24:05.846Z,837.00
2023-05-10T11:25:05.904Z,836.00
2023-05-10T11:26:05.963Z,837.00
2023-05-10T11:27:05.967Z,838.00
2023-05-10T11:28:05.982Z,837.00
2023-05-10T11:29:06.111Z,836.00
2023-05-10T11:30:06.044Z,841.00
2023-05-10T11:31:06.501Z,849.00
2023-05-10T11:32:06.119Z,860.00
2023-05-10T11:33:06.163Z,877.00
2023-05-10T11:34:06.179Z,888.00
2023-05-10T11:35:06.171Z,899.00
2023-05-10T11:36:06.454Z,920.00
2023-05-10T11:37:06.222Z,939.00
2023-05-10T11:38:06.267Z,946.00
2023-05-10T11:39:06.366Z,946.00
2023-05-10T11:40:06.318Z,935.00
2023-05-10T11:41:06.427Z,910.00
2023-05-10T11:42:06.429Z,888.00
2023-05-10T11:43:06.419Z,866.00
2023-05-10T11:44:06.467Z,846.00
2023-05-10T11:45:06.480Z,821.00
2023-05-10T11:46:06.556Z,798.00
2023-05-10T11:47:06.504Z,785.00
2023-05-10T11:48:06.662Z,773.00
2023-05-10T11:49:06.597Z,763.00
2023-05-10T11:50:06.678Z,751.00
2023-05-10T11:51:06.965Z,734.00
2023-05-10T11:52:06.721Z,724.00
2023-05-10T11:53:06.791Z,713.00
2023-05-10T11:54:06.814Z,706.00
2023-05-10T11:55:06.856Z,690.00
2023-05-10T11:56:06.941Z,682.00
2023-05-10T11:57:06.911Z,669.00
2023-05-10T11:58:06.965Z,661.00
2023-05-10T11:59:07.038Z,655.00
2023-05-10T12:00:07.038Z,646.00
2023-05-10T12:01:07.157Z,641.00
2023-05-10T12:02:07.203Z,634.00
2023-05-10T12:03:07.277Z,627.00
2023-05-10T12:04:07.333Z,615.00
2023-05-10T12:05:07.322Z,606.00
2023-05-10T12:06:07.373Z,602.00
2023-05-10T12:07:07.428Z,595.00
2023-05-10T12:08:07.474Z,594.00
2023-05-10T12:09:07.525Z,587.00
2023-05-10T12:10:07.582Z,584.00
2023-05-10T12:11:07.664Z,581.00
2023-05-10T12:12:07.730Z,576.00
2023-05-10T12:13:07.756Z,571.00
2023-05-10T12:14:07.791Z,566.00
2023-05-10T12:15:07.863Z,563.00
2023-05-10T12:16:07.987Z,560.00
2023-05-10T12:17:07.978Z,555.00
2023-05-10T12:18:08.102Z,551.00
2023-05-10T12:19:08.217Z,548.00
2023-05-10T12:20:08.188Z,544.00
2023-05-10T12:21:08.472Z,540.00
2023-05-10T12:22:08.297Z,538.00
2023-05-10T12:23:08.372Z,537.00
2023-05-10T12:24:08.380Z,535.00
2023-05-10T12:25:08.437Z,532.00